Huvudsida
METAR-TAF:

METAR-TAF

Flygplatser :

Pantelleria, Italien

latitud: 36-49N, longitud: 011-58E, höjd: 191 m

Aktuellt väderrapport

Denna rapport gjordes för 54 minuter sedan, klockan 12:50 UTC
Vind 13 kt från nord/nordväst
Temperatur 15°C
Fuktighet 67%
Tryck 1029 hPa
Sikt 10 km eller mer
Få moln på en höjd av 2000 ft

METAR: LICG 221250Z 34013KT 9999 FEW020 15/09 Q1029

Tid: 14:44 (13:44 UTC)

Väderprognos

Denna rapport gjordes för 2 timmar och 44 minuter sedan, klockan 11:00 UTC
Prognos gäller från 22 kl. 12 UTC till 22 kl. 21 UTC
Vind 12 kt från nord
Sikt 10 km eller mer
Spridda moln på en höjd av 4000 ft

TAF: LICG 221100Z 2212/2221 35012KT 9999 SCT040

Aktuella väderrapporter och prognoser från 4000 flygplatser (METAR- och TAF-rapporter).

De tillgängliga stationerna syns som gula och röda prickar på kartan.

För musen över prickarna för att se namnen på stationerna.

Klicka sedan för att få väderrapporter och prognoser.

För att ändra kartan: Klicka på de gröna knapparna med ett svart kors på för att zooma in; den gröna knappen med ett streck på för att zooma ut; eller på de gröna pilarna för angränsande kartor.


METAR-TAF: